Terminal Aerodrome Forecast
Issued by NWS

Home | Current Version | Previous Version | Text Only | Print | Product List | Glossary On
Versions: 1 2 3 4 5 6 7 8 9 10 11 12 13
000
FTUS45 KFGZ 261725
TAFPRC
TAF
KPRC 261725Z 2618/2718 29010KT P6SM SKC
     FM262000 26015G25KT P6SM SCT090 BKN200
     FM270300 23010KT P6SM BKN250=

USA.gov is the U.S. government's official web portal to all federal, state and local government web resources and services.